Kobuk Valley National Park, AK

7:09 AM AKDT op 30 juli 2014 (GMT -0800)
Ambler (PAFM) Hoogte 289 ft | 67.11 °N, 157.86 °W | Change Station

Current weather conditions updated 13 minutes ago

Overcast
Geheel bewolkt
45 °F
Voelt als 45 °F
N
0
Wind Variabel Wind van noord

Er wordt verwacht dat het vandaag veel koeler is dan gisteren.

Vandaag
Hoog -- | Laag -- °F
--% Kans op neerslag
Gisteren
Hoog -- | Laag -- °F
Precip. -- inches
4:55 AM 0:35 AM
Wassende halvemaan, 12% visible
Druk 30.25 inches
Zicht 0.2 mijlen
Wolken Geheel bewolkt 100 ft
Dauwpunt 43 °F
Vochtigheid 93%
Neerslag 0.00 inches
Dikte sneeuw Niet beschikbaar.
UV 0 van de 12
Pollen Niet beschikbaar.
Luchtkwaliteit Niet beschikbaar.
Flu Activity Niet beschikbaar.
METAR PAFM 301456Z AUTO 00000KT 1/4SM OVC001 07/06 A3025 RMK AO1 52003

More Conditions Fewer Conditions

Druk 30.25 inches
Zicht 0.2 mijlen
Wolken Geheel bewolkt 100 ft
Dauwpunt 43 °F
Vochtigheid 93%
Neerslag 0.00 inches
Dikte sneeuw Niet beschikbaar.
UV 0 van de 12
Pollen Niet beschikbaar.
Luchtkwaliteit Niet beschikbaar.
Flu Activity Niet beschikbaar.
METAR PAFM 301456Z AUTO 00000KT 1/4SM OVC001 07/06 A3025 RMK AO1 52003

More Conditions Fewer Conditions

10-Day Weather Forecast

Almanac

Astronomie

Jul. 30, 2014 Opkomst Ondergang
Werkelijke tijd 4:55 AM AKDT 12:35 AM AKDT
Burgerlijke schemering 3:20 AM AKDT 2:15 AM AKDT
Nautische schemering Sun does not rise Sun does not rise
Astronomische schemering Sun does not rise Sun does not rise
Maan 11:09 AM AKDT 11:42 PM AKDT
Golflengte van het zichtbare licht 22h 55m
Daglengte
19h 39m
Tomorrow will be 9m 46s shorter.
Wassende halvemaan, 12% of the Moon is Illuminated
Vandaag
Wassende halvemaan
aug 3
Eerste kwartier
aug 10
Volle maan
aug 17
Laatste kwartier
aug 25
Nieuw

Extremen vandaag

State Highs State Lows

Community

WunderPhotos

Upload Photos

1,739,107 foto’s ge-upload!

WunderBlogs® & News

By Dr. Jeff Masters
Director of Meteorology, Weather Underground
By Kari Strenfel
Meteorologist, Weather Underground
By Christopher C. Burt
Weather Historian, Weather Underground
July 30, 2014
July 30, 2014
July 30, 2014

Nearby

Luchtkwaliteit

Not available.

Dikte sneeuw

Station Depth Geometrische hoogte
Rocky Point 2 in 500 ft
Gobblers Knob 0 in 2030 ft
Coldfoot 0 in 1040 ft
Atigun Pass 0 in 4800 ft
Fort Yukon 3 in 430 ft

Aardbevingen

Stad Distance Mag. Time & Date
No recent earthquake activity has been reported nearby.
Minimum magnitude displayed is 2.5.

Watertemperatuur langs de kust

Plaats Temperatuur
Geen meldingen van stations

Nabije weerstations

Geen persoonlijke weerstations in dit gebied.